Time;durP1;ratioP1;P1;durP2;ratioP2;P2;SDS_P1;SDS_P2;PMS_P1;PMS_P2;Temp;Humidity;BMP_temperature;BMP_pressure;BME280_temperature;BME280_humidity;BME280_pressure;Samples;Min_cycle;Max_cycle;Signal;HPM_P1;HPM_P2
2022/09/13 00:00:51;;;;;;;6.65;3.33;;;22.40;86.30;;;;;;5058445;28;20059;-69
2022/09/13 00:03:18;;;;;;;7.10;3.42;;;22.30;86.50;;;;;;5080518;28;20028;-68
2022/09/13 00:05:43;;;;;;;5.70;3.33;;;22.30;86.90;;;;;;5084351;28;20051;-69
2022/09/13 00:08:09;;;;;;;4.88;2.50;;;22.20;87.10;;;;;;5085457;28;20024;-69
2022/09/13 00:10:37;;;;;;;6.65;3.25;;;22.30;87.40;;;;;;5075884;28;20028;-69
2022/09/13 00:13:04;;;;;;;7.57;3.80;;;22.20;87.50;;;;;;5071754;28;20472;-69
2022/09/13 00:15:30;;;;;;;9.32;4.25;;;22.20;87.70;;;;;;5068670;28;20040;-69
2022/09/13 00:17:56;;;;;;;5.00;3.17;;;22.10;87.80;;;;;;5073956;28;20074;-69
2022/09/13 00:20:22;;;;;;;7.10;3.45;;;22.10;87.90;;;;;;5085336;28;20435;-69
2022/09/13 00:22:48;;;;;;;14.30;8.82;;;22.10;87.90;;;;;;5067978;28;20043;-70
2022/09/13 00:25:14;;;;;;;5.68;3.53;;;22.10;88.50;;;;;;5087533;28;20024;-69
2022/09/13 00:27:43;;;;;;;5.60;2.85;;;22.10;88.10;;;;;;5079396;28;20032;-69
2022/09/13 00:30:10;;;;;;;6.30;3.17;;;22.10;88.10;;;;;;5074263;28;20029;-69
2022/09/13 00:32:36;;;;;;;11.02;4.85;;;22.00;88.10;;;;;;5074972;28;20387;-69
2022/09/13 00:35:03;;;;;;;10.05;4.53;;;22.10;88.20;;;;;;5072578;28;20035;-69
2022/09/13 00:37:29;;;;;;;6.30;3.50;;;22.00;88.50;;;;;;5085141;28;20021;-69
2022/09/13 00:39:55;;;;;;;12.73;6.15;;;22.00;88.70;;;;;;5090313;28;20055;-69
2022/09/13 00:42:28;;;;;;;11.32;5.20;;;22.00;88.90;;;;;;5081855;28;20039;-69
2022/09/13 00:45:10;;;;;;;6.75;4.15;;;22.00;88.90;;;;;;5078350;28;20112;-69
2022/09/13 00:48:03;;;;;;;3.92;2.50;;;22.00;89.20;;;;;;5062271;28;20391;-69
2022/09/13 00:50:39;;;;;;;5.37;2.93;;;21.90;89.40;;;;;;5072270;28;20036;-69
2022/09/13 00:53:14;;;;;;;9.18;4.65;;;21.90;89.50;;;;;;5083796;28;20119;-69
2022/09/13 00:55:54;;;;;;;3.53;2.40;;;21.90;89.70;;;;;;5072112;28;20110;-69
2022/09/13 00:58:45;;;;;;;6.60;3.50;;;21.90;89.90;;;;;;5060972;28;20122;-69
2022/09/13 01:01:13;;;;;;;6.10;3.28;;;21.80;90.00;;;;;;5059042;28;20491;-69
2022/09/13 01:03:41;;;;;;;6.18;3.30;;;21.80;90.10;;;;;;5053791;28;20044;-69
2022/09/13 01:06:24;;;;;;;12.30;6.03;;;21.80;90.20;;;;;;5064176;28;20036;-69
2022/09/13 01:08:52;;;;;;;5.82;3.95;;;21.70;90.30;;;;;;5078338;28;20491;-69
2022/09/13 01:11:46;;;;;;;5.40;2.80;;;21.70;90.20;;;;;;5066307;28;20082;-69
2022/09/13 01:14:12;;;;;;;7.78;3.85;;;21.70;90.40;;;;;;5068567;28;20480;-69
2022/09/13 01:16:37;;;;;;;3.28;2.22;;;21.60;90.40;;;;;;5063207;28;20082;-69
2022/09/13 01:19:03;;;;;;;3.72;2.45;;;21.60;90.40;;;;;;5052889;28;20104;-69
2022/09/13 01:22:06;;;;;;;8.68;2.97;;;21.60;90.50;;;;;;5063419;28;20037;-69
2022/09/13 01:24:55;;;;;;;4.35;1.90;;;21.60;90.50;;;;;;5062348;28;20031;-69
2022/09/13 01:27:46;;;;;;;9.55;5.00;;;21.60;90.50;;;;;;5065153;28;20112;-69
2022/09/13 01:30:18;;;;;;;11.00;5.18;;;21.60;90.60;;;;;;5068281;28;20101;-69
2022/09/13 01:33:02;;;;;;;6.38;3.53;;;21.50;90.70;;;;;;5073828;28;20032;-69
2022/09/13 01:35:55;;;;;;;7.35;4.32;;;21.50;90.70;;;;;;5069108;28;20028;-69
2022/09/13 01:38:47;;;;;;;12.15;6.88;;;21.50;90.80;;;;;;5068663;28;20048;-69
2022/09/13 01:41:46;;;;;;;4.40;3.05;;;21.50;90.90;;;;;;5055402;28;20052;-69
2022/09/13 01:44:18;;;;;;;9.57;4.28;;;21.50;90.80;;;;;;5063226;28;20055;-69
2022/09/13 01:47:04;;;;;;;14.95;7.60;;;21.40;90.80;;;;;;5056560;28;20028;-69
2022/09/13 01:50:11;;;;;;;8.20;4.35;;;21.40;91.00;;;;;;5057625;28;20067;-69
2022/09/13 01:52:43;;;;;;;10.30;5.47;;;21.40;90.80;;;;;;5063520;28;20040;-69
2022/09/13 01:55:34;;;;;;;10.50;4.37;;;21.50;91.00;;;;;;5071410;28;20101;-69
2022/09/13 01:58:03;;;;;;;8.82;4.82;;;21.50;91.10;;;;;;5071586;28;20348;-69
2022/09/13 02:00:34;;;;;;;18.00;8.85;;;21.40;91.20;;;;;;5062735;28;20037;-69
2022/09/13 02:03:06;;;;;;;15.13;8.13;;;21.40;91.30;;;;;;5055964;28;20044;-69
2022/09/13 02:05:46;;;;;;;19.75;9.32;;;21.40;91.20;;;;;;5060356;28;20154;-69
2022/09/13 02:08:31;;;;;;;10.32;6.68;;;21.40;91.50;;;;;;5058013;28;20039;-69
2022/09/13 02:11:06;;;;;;;8.75;4.20;;;21.40;91.10;;;;;;5071662;28;20020;-69
2022/09/13 02:13:37;;;;;;;13.18;8.63;;;21.40;91.00;;;;;;5072206;28;20114;-69
2022/09/13 02:16:11;;;;;;;9.65;5.72;;;21.40;91.30;;;;;;5064275;28;20108;-69
2022/09/13 02:18:46;;;;;;;7.82;3.97;;;21.40;91.00;;;;;;5066590;28;20523;-69
2022/09/13 02:21:20;;;;;;;8.20;4.43;;;21.40;91.10;;;;;;5061944;28;20091;-69
2022/09/13 02:24:01;;;;;;;5.15;2.72;;;21.40;91.20;;;;;;5064173;28;20028;-69
2022/09/13 02:26:29;;;;;;;13.13;5.60;;;21.40;91.20;;;;;;5061783;28;20166;-68
2022/09/13 02:28:59;;;;;;;19.02;7.15;;;21.30;91.40;;;;;;5068510;28;20024;-69
2022/09/13 02:31:37;;;;;;;15.02;8.80;;;21.30;91.50;;;;;;5079663;28;20028;-69
2022/09/13 02:34:09;;;;;;;13.63;7.90;;;21.30;91.70;;;;;;5073113;28;20064;-69
2022/09/13 02:36:39;;;;;;;13.60;8.47;;;21.30;91.70;;;;;;5071554;28;20605;-69
2022/09/13 02:39:13;;;;;;;11.77;7.07;;;21.30;91.80;;;;;;5059495;28;20056;-69
2022/09/13 02:41:44;;;;;;;14.05;7.28;;;21.30;91.60;;;;;;5069938;28;20051;-69
2022/09/13 02:44:21;;;;;;;14.52;7.57;;;21.30;91.50;;;;;;5072459;28;20066;-69
2022/09/13 02:47:21;;;;;;;13.85;8.63;;;21.40;91.60;;;;;;5054808;28;20032;-69
2022/09/13 02:50:01;;;;;;;12.55;7.97;;;21.40;92.00;;;;;;5034230;28;20226;-69
2022/09/13 02:52:37;;;;;;;13.70;8.05;;;21.40;92.10;;;;;;5070785;28;20083;-69
2022/09/13 02:55:13;;;;;;;9.15;6.68;;;21.50;92.10;;;;;;5070760;28;20036;-69
2022/09/13 02:57:49;;;;;;;8.27;5.13;;;21.50;92.20;;;;;;5069350;28;20463;-69
2022/09/13 03:00:15;;;;;;;8.48;5.45;;;21.50;92.00;;;;;;5061406;28;20488;-69
2022/09/13 03:02:42;;;;;;;7.75;4.43;;;21.50;92.20;;;;;;5070607;28;20036;-69
2022/09/13 03:05:08;;;;;;;8.25;3.97;;;21.50;92.20;;;;;;5067418;28;20029;-69
2022/09/13 03:07:34;;;;;;;6.40;4.13;;;21.60;92.00;;;;;;5069845;28;20491;-69
2022/09/13 03:10:04;;;;;;;4.55;2.70;;;21.60;92.30;;;;;;5067106;28;20024;-69
2022/09/13 03:12:58;;;;;;;6.65;2.55;;;21.60;91.60;;;;;;5064944;28;20021;-69
2022/09/13 03:16:04;;;;;;;6.57;2.42;;;21.60;91.20;;;;;;5067569;28;20020;-70
2022/09/13 03:18:51;;;;;;;4.78;2.63;;;21.50;91.00;;;;;;5065645;28;20032;-69
2022/09/13 03:21:40;;;;;;;7.63;2.80;;;21.50;90.90;;;;;;5067630;28;20044;-69
2022/09/13 03:24:32;;;;;;;4.30;2.72;;;21.50;90.90;;;;;;5068367;28;20600;-69
2022/09/13 03:27:33;;;;;;;8.30;3.22;;;21.50;90.90;;;;;;5069501;28;20547;-69
2022/09/13 03:30:10;;;;;;;5.88;2.42;;;21.50;90.80;;;;;;5069076;28;20024;-69
2022/09/13 03:32:57;;;;;;;6.18;2.58;;;21.50;90.90;;;;;;5075723;28;20437;-69
2022/09/13 03:35:35;;;;;;;4.22;2.30;;;21.50;90.90;;;;;;5057635;28;20060;-69
2022/09/13 03:38:15;;;;;;;5.40;2.60;;;21.50;90.90;;;;;;5057812;28;20036;-69
2022/09/13 03:40:56;;;;;;;5.05;2.50;;;21.40;90.80;;;;;;5058225;28;20502;-69
2022/09/13 03:43:34;;;;;;;4.32;2.03;;;21.40;90.90;;;;;;5078388;28;20024;-69
2022/09/13 03:46:04;;;;;;;6.05;2.30;;;21.40;90.80;;;;;;5062649;28;20093;-69
2022/09/13 03:48:31;;;;;;;4.03;2.28;;;21.40;90.80;;;;;;5069334;28;20048;-69
2022/09/13 03:50:57;;;;;;;6.80;2.30;;;21.40;90.70;;;;;;5071163;28;20165;-69
2022/09/13 03:53:26;;;;;;;4.20;2.10;;;21.40;90.80;;;;;;5069623;28;20115;-69
2022/09/13 03:55:53;;;;;;;5.75;1.80;;;21.40;90.90;;;;;;5058105;28;20183;-69
2022/09/13 03:58:20;;;;;;;3.78;1.80;;;21.40;90.90;;;;;;5050786;28;20024;-69
2022/09/13 04:00:46;;;;;;;3.80;1.45;;;21.40;90.90;;;;;;5063536;28;20044;-69
2022/09/13 04:03:12;;;;;;;3.38;1.50;;;21.30;90.90;;;;;;5058781;28;20029;-69
2022/09/13 04:05:38;;;;;;;4.85;1.55;;;21.40;90.90;;;;;;5073782;28;20388;-69
2022/09/13 04:08:08;;;;;;;5.40;1.35;;;21.30;91.00;;;;;;5066323;28;20032;-69
2022/09/13 04:10:36;;;;;;;3.47;1.13;;;21.30;91.00;;;;;;5053841;28;20472;-69
2022/09/13 04:13:02;;;;;;;2.25;1.00;;;21.30;91.00;;;;;;5063155;28;20025;-69
2022/09/13 04:15:30;;;;;;;2.28;0.80;;;21.30;90.90;;;;;;5070961;28;20078;-69
2022/09/13 04:17:56;;;;;;;1.65;1.42;;;21.20;90.90;;;;;;5063601;28;20033;-69
2022/09/13 04:20:22;;;;;;;2.55;0.98;;;21.30;91.10;;;;;;5060371;28;20044;-69
2022/09/13 04:22:52;;;;;;;2.35;0.95;;;21.20;91.20;;;;;;5072638;28;20036;-69
2022/09/13 04:25:19;;;;;;;4.22;1.77;;;21.20;91.20;;;;;;5057345;28;20033;-70
2022/09/13 04:27:44;;;;;;;4.10;1.05;;;21.20;91.20;;;;;;5065164;28;20033;-69
2022/09/13 04:30:11;;;;;;;2.72;0.85;;;21.20;91.20;;;;;;5068506;28;20043;-68
2022/09/13 04:32:37;;;;;;;3.53;0.93;;;21.20;91.10;;;;;;5073639;28;20023;-70
2022/09/13 04:35:03;;;;;;;5.93;1.13;;;21.20;91.20;;;;;;5070491;28;20387;-69
2022/09/13 04:37:28;;;;;;;2.08;0.90;;;21.20;91.30;;;;;;5066168;28;20029;-69
2022/09/13 04:39:54;;;;;;;3.08;1.00;;;21.20;91.30;;;;;;5068679;28;20060;-67
2022/09/13 04:42:19;;;;;;;3.72;1.10;;;21.10;91.20;;;;;;5078173;28;20024;-68
2022/09/13 04:44:45;;;;;;;3.85;1.15;;;21.10;91.30;;;;;;5077256;28;20395;-69
2022/09/13 04:47:10;;;;;;;2.40;1.10;;;21.10;91.20;;;;;;5067180;28;20159;-67
2022/09/13 04:49:36;;;;;;;4.43;1.33;;;21.20;91.30;;;;;;5067112;28;20055;-70
2022/09/13 04:52:02;;;;;;;3.15;1.40;;;21.10;91.40;;;;;;5070149;28;20035;-67
2022/09/13 04:54:28;;;;;;;4.00;1.10;;;21.10;91.50;;;;;;5066909;28;20484;-68
2022/09/13 04:56:54;;;;;;;4.57;1.05;;;21.10;91.50;;;;;;5068229;28;20036;-67
2022/09/13 04:59:28;;;;;;;7.82;1.52;;;21.10;91.50;;;;;;5071353;28;20025;-67
2022/09/13 05:01:57;;;;;;;3.47;1.08;;;21.10;91.60;;;;;;5070022;28;20028;-67
2022/09/13 05:04:23;;;;;;;4.45;1.05;;;21.10;91.80;;;;;;5067853;28;20122;-67
2022/09/13 05:06:48;;;;;;;6.05;1.13;;;21.10;91.50;;;;;;5068446;28;20062;-68
2022/09/13 05:09:14;;;;;;;2.85;1.27;;;21.10;91.50;;;;;;5066394;28;20053;-67
2022/09/13 05:11:41;;;;;;;5.88;1.35;;;21.10;91.60;;;;;;5070809;28;20082;-68
2022/09/13 05:14:09;;;;;;;4.15;1.17;;;21.10;91.50;;;;;;5067792;28;20066;-68
2022/09/13 05:16:35;;;;;;;7.75;1.30;;;21.10;91.80;;;;;;5068855;28;20067;-67
2022/09/13 05:19:03;;;;;;;8.70;1.42;;;21.10;91.80;;;;;;5069186;28;20059;-67
2022/09/13 05:21:29;;;;;;;3.50;1.00;;;21.10;92.20;;;;;;5071074;28;20381;-70
2022/09/13 05:23:56;;;;;;;4.05;1.20;;;21.20;92.10;;;;;;5070552;28;20047;-67
2022/09/13 05:26:23;;;;;;;3.75;0.98;;;21.10;92.30;;;;;;5068861;28;20525;-67
2022/09/13 05:28:49;;;;;;;5.28;1.20;;;21.20;92.40;;;;;;5070082;28;20033;-68
2022/09/13 05:31:30;;;;;;;11.38;2.25;;;21.20;92.40;;;;;;5078106;28;20035;-68
2022/09/13 05:33:59;;;;;;;9.35;1.20;;;21.20;92.50;;;;;;5071582;28;20056;-67
2022/09/13 05:36:25;;;;;;;5.97;1.20;;;21.30;92.60;;;;;;5062357;28;20468;-69
2022/09/13 05:38:52;;;;;;;7.40;1.38;;;21.30;92.60;;;;;;5068329;28;20073;-68
2022/09/13 05:41:18;;;;;;;8.60;1.30;;;21.20;92.60;;;;;;5062155;28;20079;-68
2022/09/13 05:43:43;;;;;;;10.07;1.73;;;21.20;92.50;;;;;;5067548;28;20045;-67
2022/09/13 05:46:12;;;;;;;14.20;1.63;;;21.20;92.50;;;;;;5063823;28;20440;-67
2022/09/13 05:48:38;;;;;;;10.30;1.52;;;21.30;92.70;;;;;;5071752;28;20071;-68
2022/09/13 05:51:16;;;;;;;4.80;1.35;;;21.30;92.80;;;;;;5058354;28;20044;-69
2022/09/13 05:53:43;;;;;;;9.85;1.20;;;21.30;92.90;;;;;;5070131;28;20017;-70
2022/09/13 05:56:12;;;;;;;8.32;1.65;;;21.30;93.00;;;;;;5059255;28;20120;-68
2022/09/13 05:58:43;;;;;;;7.95;1.38;;;21.30;93.10;;;;;;5072072;28;20037;-68
2022/09/13 06:01:10;;;;;;;11.13;1.63;;;21.30;93.10;;;;;;5066792;28;20048;-68
2022/09/13 06:03:36;;;;;;;6.00;1.35;;;21.40;93.10;;;;;;5053036;28;20059;-67
2022/09/13 06:06:03;;;;;;;6.25;1.30;;;21.40;93.00;;;;;;5054054;28;20115;-68
2022/09/13 06:08:30;;;;;;;11.13;1.58;;;21.40;93.00;;;;;;5071901;28;20032;-68
2022/09/13 06:11:01;;;;;;;14.23;1.50;;;21.40;93.00;;;;;;5070232;28;20078;-67
2022/09/13 06:13:27;;;;;;;11.73;1.90;;;21.40;93.10;;;;;;5054184;28;20119;-67
2022/09/13 06:15:55;;;;;;;8.75;1.42;;;21.40;93.00;;;;;;5055468;28;20036;-67
2022/09/13 06:18:21;;;;;;;7.45;1.40;;;21.40;93.00;;;;;;5064329;28;20083;-68
2022/09/13 06:20:47;;;;;;;7.28;1.42;;;21.40;92.90;;;;;;5067588;28;20036;-68
2022/09/13 06:23:14;;;;;;;6.25;1.38;;;21.40;92.80;;;;;;5062510;28;20044;-67
2022/09/13 06:25:40;;;;;;;5.70;0.98;;;21.40;92.70;;;;;;5067795;28;20487;-67
2022/09/13 06:28:06;;;;;;;4.13;1.08;;;21.40;92.40;;;;;;5071876;28;20448;-67
2022/09/13 06:30:32;;;;;;;7.20;0.85;;;21.40;92.40;;;;;;5059522;28;20116;-67
2022/09/13 06:32:58;;;;;;;8.82;1.20;;;21.40;92.00;;;;;;5077113;28;20119;-68
2022/09/13 06:35:24;;;;;;;8.07;1.10;;;21.40;92.00;;;;;;5070218;28;20041;-69
2022/09/13 06:37:50;;;;;;;4.32;1.17;;;21.30;91.90;;;;;;5064313;28;20021;-70
2022/09/13 06:40:16;;;;;;;10.13;0.95;;;21.40;91.70;;;;;;5064538;28;20057;-68
2022/09/13 06:42:42;;;;;;;2.90;1.15;;;21.40;91.70;;;;;;5081120;28;20032;-68
2022/09/13 06:45:08;;;;;;;4.57;1.05;;;21.40;91.30;;;;;;5055420;28;20040;-66
2022/09/13 06:47:34;;;;;;;3.90;0.82;;;21.40;91.20;;;;;;5062651;28;20035;-67
2022/09/13 06:50:00;;;;;;;9.57;0.98;;;21.40;90.90;;;;;;5070493;28;20028;-66
2022/09/13 06:52:26;;;;;;;4.78;0.82;;;21.40;90.80;;;;;;5060744;28;20106;-66
2022/09/13 06:54:52;;;;;;;7.80;1.35;;;21.30;90.60;;;;;;5056207;28;20040;-67
2022/09/13 06:57:21;;;;;;;7.85;1.02;;;21.30;90.40;;;;;;5059982;28;20037;-67
2022/09/13 06:59:46;;;;;;;8.52;1.23;;;21.40;90.20;;;;;;5067256;28;20043;-67
2022/09/13 07:02:13;;;;;;;9.40;1.15;;;21.30;90.30;;;;;;5060602;28;20025;-67
2022/09/13 07:04:39;;;;;;;1.02;0.55;;;21.30;90.00;;;;;;5054898;28;20391;-67
2022/09/13 07:07:05;;;;;;;5.10;1.00;;;21.30;90.00;;;;;;5071144;28;20035;-67
2022/09/13 07:09:30;;;;;;;4.13;0.75;;;21.20;89.60;;;;;;5066148;28;20024;-67
2022/09/13 07:11:56;;;;;;;4.72;1.23;;;21.20;89.60;;;;;;5062872;28;20024;-67
2022/09/13 07:14:24;;;;;;;4.65;1.33;;;21.20;89.60;;;;;;5052782;28;20040;-67
2022/09/13 07:16:50;;;;;;;4.10;0.82;;;21.20;89.70;;;;;;5051690;28;20029;-67
2022/09/13 07:19:19;;;;;;;5.05;1.60;;;21.20;89.50;;;;;;5050665;28;20124;-67
2022/09/13 07:21:45;;;;;;;10.18;1.48;;;21.20;89.60;;;;;;5051482;28;20048;-67
2022/09/13 07:24:11;;;;;;;3.78;0.77;;;21.20;89.60;;;;;;5068800;28;20032;-67
2022/09/13 07:26:37;;;;;;;6.47;1.10;;;21.20;89.80;;;;;;5058833;28;20041;-67
2022/09/13 07:29:06;;;;;;;5.15;1.17;;;21.20;89.50;;;;;;5069534;28;20058;-67
2022/09/13 07:31:35;;;;;;;8.73;1.05;;;21.20;89.50;;;;;;5078309;28;20085;-67
2022/09/13 07:34:11;;;;;;;5.53;1.65;;;21.20;89.10;;;;;;5066821;28;20033;-67
2022/09/13 07:36:37;;;;;;;7.18;1.17;;;21.20;89.10;;;;;;5060846;28;20064;-67
2022/09/13 07:39:04;;;;;;;7.13;1.00;;;21.20;89.10;;;;;;5056369;28;20071;-67
2022/09/13 07:41:31;;;;;;;7.80;1.20;;;21.30;88.70;;;;;;5063934;28;20097;-67
2022/09/13 07:44:00;;;;;;;8.80;1.20;;;21.20;88.20;;;;;;5079448;28;20021;-67
2022/09/13 07:46:31;;;;;;;8.63;1.55;;;21.20;88.30;;;;;;5067930;28;20042;-67
2022/09/13 07:48:57;;;;;;;7.47;1.20;;;21.30;87.80;;;;;;5074657;28;20070;-67
2022/09/13 07:51:25;;;;;;;9.07;1.15;;;21.30;87.60;;;;;;5072983;28;20029;-66
2022/09/13 07:53:57;;;;;;;3.88;1.20;;;21.30;87.70;;;;;;5071105;28;20112;-66
2022/09/13 07:56:28;;;;;;;6.43;1.23;;;21.30;87.40;;;;;;5070240;28;20045;-67
2022/09/13 07:58:54;;;;;;;7.80;1.27;;;21.30;87.30;;;;;;5061138;28;20071;-67
2022/09/13 08:01:24;;;;;;;4.90;1.42;;;21.40;87.10;;;;;;5071024;28;20044;-72
2022/09/13 08:03:51;;;;;;;8.13;1.15;;;21.30;87.40;;;;;;5068583;28;20115;-67
2022/09/13 08:06:16;;;;;;;7.72;1.33;;;21.40;86.00;;;;;;5060932;28;20075;-67
2022/09/13 08:08:45;;;;;;;2.55;1.05;;;21.30;86.10;;;;;;5073382;28;20021;-67
2022/09/13 08:11:18;;;;;;;7.97;1.55;;;21.30;86.00;;;;;;5055475;28;20037;-68
2022/09/13 08:13:48;;;;;;;5.35;1.27;;;21.30;86.10;;;;;;5060163;28;20060;-67
2022/09/13 08:16:15;;;;;;;6.93;1.10;;;21.30;86.20;;;;;;5054455;28;20040;-68
2022/09/13 08:18:49;;;;;;;7.75;0.98;;;21.40;85.70;;;;;;5068814;28;20086;-67
2022/09/13 08:21:15;;;;;;;7.45;1.40;;;21.40;84.70;;;;;;5072323;28;20044;-67
2022/09/13 08:23:41;;;;;;;4.05;1.50;;;21.40;84.70;;;;;;5059568;28;20039;-67
2022/09/13 08:26:08;;;;;;;7.43;1.08;;;21.40;84.80;;;;;;5057390;28;20025;-68
2022/09/13 08:28:35;;;;;;;6.28;1.10;;;21.40;84.40;;;;;;5061670;28;20071;-67
2022/09/13 08:31:06;;;;;;;6.72;1.17;;;21.40;84.60;;;;;;5074227;28;20033;-67
2022/09/13 08:33:32;;;;;;;9.38;0.93;;;21.40;84.50;;;;;;5074042;28;20161;-67
2022/09/13 08:35:58;;;;;;;6.97;0.98;;;21.40;84.00;;;;;;5072073;28;20254;-68
2022/09/13 08:38:24;;;;;;;9.95;2.10;;;21.40;84.30;;;;;;5070877;28;20049;-67
2022/09/13 08:40:55;;;;;;;6.60;1.00;;;21.40;84.20;;;;;;5054594;28;20507;-67
2022/09/13 08:43:38;;;;;;;19.45;1.85;;;21.40;84.10;;;;;;5080128;28;20037;-67
2022/09/13 08:46:22;;;;;;;2.53;0.52;;;21.40;84.10;;;;;;5073973;28;20115;-68
2022/09/13 08:48:51;;;;;;;12.90;1.30;;;21.40;84.50;;;;;;5060661;28;20040;-67
2022/09/13 08:51:32;;;;;;;6.30;1.30;;;21.40;84.00;;;;;;5070701;28;20371;-67
2022/09/13 08:53:59;;;;;;;8.45;1.20;;;21.40;83.90;;;;;;5074113;28;20028;-68
2022/09/13 08:56:43;;;;;;;6.15;1.15;;;21.40;84.00;;;;;;5056417;28;20029;-67
2022/09/13 08:59:34;;;;;;;8.50;1.05;;;21.50;84.20;;;;;;5066274;28;20127;-67
2022/09/13 09:02:18;;;;;;;8.20;1.10;;;21.40;83.80;;;;;;5063219;28;20036;-67
2022/09/13 09:04:49;;;;;;;;;;;21.50;84.10;;;;;;5072072;28;20032;-67
2022/09/13 09:07:22;;;;;;;4.93;0.95;;;21.60;84.30;;;;;;5073471;28;19908;-67
2022/09/13 09:09:51;;;;;;;6.15;1.20;;;21.60;83.40;;;;;;5073807;28;20085;-68
2022/09/13 09:12:37;;;;;;;10.50;1.23;;;21.60;83.50;;;;;;5071418;28;20813;-69
2022/09/13 09:15:13;;;;;;;5.97;1.25;;;21.60;83.60;;;;;;5062994;28;20396;-67
2022/09/13 09:17:58;;;;;;;9.15;1.52;;;21.60;82.20;;;;;;5057039;28;20028;-67
2022/09/13 09:20:39;;;;;;;5.93;1.10;;;21.70;82.10;;;;;;5059513;28;20045;-67
2022/09/13 09:23:18;;;;;;;13.38;1.55;;;21.80;82.20;;;;;;5072817;28;20350;-67
2022/09/13 09:25:45;;;;;;;6.70;1.10;;;21.70;81.50;;;;;;5071001;28;20032;-68
2022/09/13 09:28:13;;;;;;;2.00;0.43;;;21.80;82.10;;;;;;5061689;28;20139;-67
2022/09/13 09:31:01;;;;;;;6.28;0.77;;;21.80;82.60;;;;;;5068855;28;20040;-67
2022/09/13 09:33:33;;;;;;;3.60;1.00;;;21.80;82.40;;;;;;5064687;28;20128;-67
2022/09/13 09:36:12;;;;;;;9.55;1.38;;;21.80;82.50;;;;;;5064898;28;20369;-68
2022/09/13 09:38:42;;;;;;;3.60;0.82;;;21.80;82.20;;;;;;5051418;28;20548;-68
2022/09/13 09:41:25;;;;;;;5.28;1.00;;;21.80;82.20;;;;;;5053329;28;20037;-67
2022/09/13 09:44:12;;;;;;;;;;;21.90;82.00;;;;;;5084151;28;20066;-68
2022/09/13 09:46:41;;;;;;;4.00;0.85;;;21.90;82.50;;;;;;5055984;28;21129;-67
2022/09/13 09:52:03;;;;;;;;;;;21.90;82.10;;;;;;5060032;28;20107;-67
2022/09/13 09:54:30;;;;;;;11.55;1.65;;;21.90;82.50;;;;;;5057320;28;19912;-68
2022/09/13 09:56:55;;;;;;;3.22;1.52;;;22.00;82.20;;;;;;5052861;28;20519;-68
2022/09/13 09:59:31;;;;;;;6.95;1.20;;;22.00;82.00;;;;;;5064428;28;20144;-68
2022/09/13 10:01:57;;;;;;;4.75;1.08;;;22.00;80.60;;;;;;5061173;28;20036;-68
2022/09/13 10:04:24;;;;;;;4.60;0.80;;;22.00;81.30;;;;;;5070410;28;20037;-68
2022/09/13 10:07:08;;;;;;;3.15;0.77;;;22.00;80.90;;;;;;5071723;28;20518;-68
2022/09/13 10:09:36;;;;;;;4.95;1.08;;;22.00;80.70;;;;;;5052999;28;20025;-68
2022/09/13 10:12:03;;;;;;;7.97;1.50;;;22.00;80.70;;;;;;5064940;28;20362;-68
2022/09/13 10:14:41;;;;;;;9.23;1.30;;;22.10;80.60;;;;;;5051490;28;20038;-68
2022/09/13 10:17:28;;;;;;;3.78;0.82;;;22.10;79.90;;;;;;5053248;28;20025;-68
2022/09/13 10:19:58;;;;;;;4.05;0.82;;;22.10;79.60;;;;;;5071527;28;20048;-68
2022/09/13 10:22:28;;;;;;;3.63;0.88;;;22.10;80.00;;;;;;5057206;28;20480;-68
2022/09/13 10:24:54;;;;;;;6.15;2.05;;;22.10;79.40;;;;;;5071924;28;20379;-68
2022/09/13 10:27:34;;;;;;;8.77;1.08;;;22.10;79.40;;;;;;5069669;28;20044;-68
2022/09/13 10:30:02;;;;;;;9.18;0.95;;;22.10;79.20;;;;;;5057062;28;20074;-68
2022/09/13 10:32:31;;;;;;;3.30;0.82;;;22.20;79.20;;;;;;5076188;28;20036;-68
2022/09/13 10:35:19;;;;;;;4.72;0.88;;;22.20;78.20;;;;;;5071148;28;20425;-68
2022/09/13 10:37:45;;;;;;;6.47;0.90;;;22.20;77.70;;;;;;5071825;28;20483;-68
2022/09/13 10:40:26;;;;;;;2.88;0.80;;;22.20;76.70;;;;;;5057719;28;20049;-69
2022/09/13 10:43:00;;;;;;;7.45;1.17;;;22.30;77.40;;;;;;5063305;28;20512;-69
2022/09/13 10:45:28;;;;;;;4.63;1.10;;;22.30;77.50;;;;;;5070065;28;20073;-69
2022/09/13 10:48:03;;;;;;;5.53;1.13;;;22.40;77.60;;;;;;5070849;28;20036;-68
2022/09/13 10:50:34;;;;;;;7.43;1.27;;;22.40;77.80;;;;;;5071287;28;20369;-69
2022/09/13 10:53:02;;;;;;;3.80;1.00;;;22.50;78.70;;;;;;5068890;28;20162;-68
2022/09/13 10:55:32;;;;;;;6.95;0.93;;;22.50;78.90;;;;;;5051428;28;20090;-69
2022/09/13 10:58:01;;;;;;;6.88;1.00;;;22.50;78.80;;;;;;5067050;28;20064;-69
2022/09/13 11:00:54;;;;;;;7.55;1.48;;;22.50;79.10;;;;;;5071331;28;20040;-69
2022/09/13 11:03:45;;;;;;;3.88;1.20;;;22.60;78.60;;;;;;5064168;28;20431;-69
2022/09/13 11:06:41;;;;;;;9.52;1.25;;;22.60;78.40;;;;;;5063374;28;20094;-68
2022/09/13 11:09:29;;;;;;;6.22;0.98;;;22.60;78.60;;;;;;5065055;28;20103;-69
2022/09/13 11:12:29;;;;;;;5.88;1.25;;;22.70;78.10;;;;;;5069773;28;20086;-69
2022/09/13 11:15:18;;;;;;;6.30;1.08;;;22.70;79.00;;;;;;5066780;28;20032;-69
2022/09/13 11:18:15;;;;;;;6.00;1.25;;;22.80;78.70;;;;;;5067871;28;20029;-70
2022/09/13 11:21:01;;;;;;;6.05;1.40;;;22.80;78.00;;;;;;5069618;28;20106;-70
2022/09/13 11:23:35;;;;;;;7.97;1.17;;;22.80;77.90;;;;;;5069772;28;20028;-71
2022/09/13 11:26:01;;;;;;;10.02;1.55;;;22.80;78.40;;;;;;5057895;28;20415;-71
2022/09/13 11:28:48;;;;;;;6.85;1.17;;;22.90;78.70;;;;;;5066852;28;20070;-71
2022/09/13 11:31:29;;;;;;;6.93;1.15;;;22.90;79.40;;;;;;5080326;28;20030;-71
2022/09/13 11:34:15;;;;;;;6.72;1.25;;;23.00;79.50;;;;;;5079059;28;20379;-68
2022/09/13 11:36:50;;;;;;;9.85;1.40;;;23.00;78.60;;;;;;5063085;28;20021;-68
2022/09/13 11:39:37;;;;;;;4.78;1.42;;;23.00;77.80;;;;;;5073015;28;20403;-68
2022/09/13 11:42:15;;;;;;;9.73;1.50;;;23.00;78.00;;;;;;5078216;28;20070;-68
2022/09/13 11:44:46;;;;;;;11.07;1.40;;;23.10;78.00;;;;;;5066371;28;20056;-69
2022/09/13 11:47:30;;;;;;;5.30;1.05;;;23.10;77.90;;;;;;5075074;28;20541;-68
2022/09/13 11:50:05;;;;;;;;;;;23.10;77.50;;;;;;5061342;28;20173;-68
2022/09/13 11:53:01;;;;;;;5.05;1.10;;;23.20;79.20;;;;;;5073661;28;20352;-68
2022/09/13 11:55:33;;;;;;;5.38;1.35;;;23.10;78.60;;;;;;5061732;28;20120;-68
2022/09/13 11:58:04;;;;;;;10.07;1.50;;;23.20;78.60;;;;;;5070498;28;20041;-68
2022/09/13 12:00:55;;;;;;;7.32;1.50;;;23.10;78.70;;;;;;5064112;28;20434;-68
2022/09/13 12:03:35;;;;;;;6.80;1.35;;;23.20;77.80;;;;;;5041715;28;20072;-68
2022/09/13 12:06:11;;;;;;;5.32;1.30;;;23.20;77.30;;;;;;5071025;28;20143;-68
2022/09/13 12:09:11;;;;;;;7.20;1.30;;;23.20;77.80;;;;;;5065260;28;20495;-68
2022/09/13 12:11:43;;;;;;;7.65;1.00;;;23.30;78.20;;;;;;5062695;28;20407;-68
2022/09/13 12:14:19;;;;;;;10.18;1.45;;;23.30;77.70;;;;;;5069062;28;20044;-68
2022/09/13 12:16:49;;;;;;;7.65;1.38;;;23.40;77.20;;;;;;5056030;28;20090;-69
2022/09/13 12:19:30;;;;;;;7.28;1.70;;;23.40;77.50;;;;;;5059921;28;20384;-70
2022/09/13 12:21:59;;;;;;;4.72;0.90;;;23.40;77.40;;;;;;5060361;28;20125;-70
2022/09/13 12:24:36;;;;;;;12.18;1.80;;;23.40;77.40;;;;;;5055431;28;20135;-71
2022/09/13 12:27:09;;;;;;;11.88;1.98;;;23.40;76.90;;;;;;5065739;28;20024;-71
2022/09/13 12:29:56;;;;;;;8.48;1.38;;;23.50;77.40;;;;;;5065698;28;20058;-70
2022/09/13 12:32:22;;;;;;;4.53;1.02;;;23.50;77.40;;;;;;5072875;28;20116;-70
2022/09/13 12:34:53;;;;;;;6.93;1.30;;;23.50;77.40;;;;;;5060466;28;20496;-71
2022/09/13 12:37:49;;;;;;;4.65;1.13;;;23.60;77.50;;;;;;5071589;28;20032;-70
2022/09/13 12:40:33;;;;;;;8.43;1.23;;;23.60;76.30;;;;;;5073002;28;20077;-70
2022/09/13 12:43:16;;;;;;;;;;;23.60;76.40;;;;;;5085655;28;20036;-70
2022/09/13 12:46:09;;;;;;;9.30;1.42;;;23.60;78.70;;;;;;5062761;28;19908;-70
2022/09/13 12:48:59;;;;;;;4.63;1.25;;;23.70;78.40;;;;;;5052839;28;20041;-70
2022/09/13 12:51:47;;;;;;;7.72;1.23;;;23.70;78.10;;;;;;5067928;28;20361;-71
2022/09/13 12:54:31;;;;;;;12.90;1.73;;;23.70;77.10;;;;;;5063071;28;20715;-71
2022/09/13 12:57:04;;;;;;;5.93;1.30;;;23.70;77.70;;;;;;5068430;28;20031;-71
2022/09/13 13:00:03;;;;;;;4.88;1.25;;;23.80;77.80;;;;;;5071407;28;20036;-70
2022/09/13 13:02:49;;;;;;;4.40;0.95;;;23.80;77.40;;;;;;5034784;28;20044;-71
2022/09/13 13:05:30;;;;;;;8.02;1.38;;;23.80;76.90;;;;;;5071216;28;20044;-71
2022/09/13 13:08:02;;;;;;;4.15;1.00;;;23.90;77.30;;;;;;5070688;28;20021;-71
2022/09/13 13:10:37;;;;;;;9.25;1.48;;;23.90;77.90;;;;;;5067587;28;20035;-70
2022/09/13 13:13:22;;;;;;;5.75;1.10;;;24.00;79.10;;;;;;5060457;28;20044;-70
2022/09/13 13:15:48;;;;;;;5.47;1.30;;;24.00;78.30;;;;;;5059436;28;20044;-71
2022/09/13 13:18:26;;;;;;;4.00;0.98;;;24.00;78.40;;;;;;5060531;28;20025;-71
2022/09/13 13:20:55;;;;;;;3.95;1.30;;;24.10;77.20;;;;;;5062909;28;20093;-71